This is the latest recevied weather packets stored in our database for station/object IZ1DME-3. If no packets are shown the sender has not sent any weather packets the latest 10 day(s).
| Time | Temp. | Humidity | Pressure | Rain* | Wind** | Luminosity | Snow |
|---|---|---|---|---|---|---|---|
| 1777709109 | 12.78° C | 65% | 1029.1 hPa | - | - | - | - |
| 1777707610 | 12.78° C | 65% | 1029.4 hPa | - | - | - | - |
| 1777706111 | 12.22° C | 67% | 1029.7 hPa | - | - | - | - |
| 1777704610 | 11.11° C | 72% | 1029.7 hPa | - | - | - | - |
| 1777703110 | 10° C | 75% | 1030 hPa | - | - | - | - |
| 1777701610 | 8.89° C | 76% | 1030.2 hPa | - | - | - | - |
| 1777700110 | 8.33° C | 77% | 1030.5 hPa | - | - | - | - |
| 1777698610 | 7.78° C | 78% | 1030.3 hPa | - | - | - | - |
| 1777697110 | 7.78° C | 82% | 1030.3 hPa | - | - | - | - |
| 1777695609 | 7.22° C | 81% | 1030.3 hPa | - | - | - | - |
| 1777694110 | 7.78° C | 79% | 1030.2 hPa | - | - | - | - |
| 1777692610 | 8.33° C | 78% | 1029.8 hPa | - | - | - | - |
| 1777691110 | 8.33° C | 80% | 1029.7 hPa | - | - | - | - |
| 1777689610 | 8.33° C | 79% | 1029.8 hPa | - | - | - | - |
| 1777688110 | 8.89° C | 81% | 1029.8 hPa | - | - | - | - |
| 1777686610 | 8.89° C | 81% | 1029.6 hPa | - | - | - | - |
| 1777685110 | 8.89° C | 79% | 1029.5 hPa | - | - | - | - |
| 1777683610 | 9.44° C | 78% | 1029.6 hPa | - | - | - | - |
| 1777682109 | 10° C | 77% | 1029.4 hPa | - | - | - | - |
| 1777680610 | 10° C | 75% | 1029.5 hPa | - | - | - | - |
| 1777679110 | 10.56° C | 73% | 1029.5 hPa | - | - | - | - |
| 1777677610 | 10.56° C | 72% | 1029.4 hPa | - | - | - | - |
| 1777676110 | 11.11° C | 71% | 1029.4 hPa | - | - | - | - |
| 1777674610 | 11.67° C | 71% | 1029.2 hPa | - | - | - | - |
| 1777673111 | 11.67° C | 71% | 1029.1 hPa | - | - | - | - |
* Rain since midnight (hover to see other rain measurements)
** Current wind speed in m/s (hover to see current wind gust speed)